Time;durP1;ratioP1;P1;durP2;ratioP2;P2;SDS_P1;SDS_P2;PMS_P1;PMS_P2;Temp;Humidity;BMP_temperature;BMP_pressure;BME280_temperature;BME280_humidity;BME280_pressure;Samples;Min_cycle;Max_cycle;Signal;HPM_P1;HPM_P2
2023/05/10 00:01:25;;;;;;;;;;;11.50;68.10;;;-151.14;100.00;62537.16;5032948;28;19922;-83
2023/05/10 00:03:53;;;;;;;;;;;11.50;67.70;;;-151.14;100.00;62537.16;5016382;28;19928;-82
2023/05/10 00:06:21;;;;;;;;;;;11.50;67.70;;;-151.14;100.00;62537.16;5032833;28;19921;-82
2023/05/10 00:08:49;;;;;;;;;;;11.50;67.80;;;-151.14;100.00;62537.16;5031908;28;19921;-82
2023/05/10 00:11:17;;;;;;;;;;;11.50;68.00;;;-151.14;100.00;62537.16;5032778;28;20205;-82
2023/05/10 00:13:45;;;;;;;;;;;11.50;67.70;;;-151.14;100.00;62537.16;5033673;28;19927;-82
2023/05/10 00:16:15;;;;;;;;;;;11.50;68.00;;;-151.14;100.00;62537.16;5015975;28;20116;-82
2023/05/10 00:18:43;;;;;;;;;;;11.50;68.00;;;-151.14;100.00;62537.16;5015391;28;19925;-82
2023/05/10 00:21:11;;;;;;;;;;;11.50;67.60;;;-151.14;100.00;62537.16;5032322;28;19943;-82
2023/05/10 00:23:39;;;;;;;;;;;11.50;67.40;;;-151.14;100.00;62537.16;5032332;28;19976;-82
2023/05/10 00:26:07;;;;;;;;;;;11.50;67.70;;;-151.14;100.00;62537.16;5016035;28;20209;-82
2023/05/10 00:28:35;;;;;;;;;;;11.40;67.30;;;-151.14;100.00;62537.16;5031705;28;20027;-82
2023/05/10 00:31:04;;;;;;;;;;;11.50;67.70;;;-151.14;100.00;62537.16;5015910;28;19921;-82
2023/05/10 00:33:34;;;;;;;;;;;11.40;67.40;;;-151.14;100.00;62537.16;5015797;28;19943;-82
2023/05/10 00:36:02;;;;;;;;;;;11.40;67.60;;;-151.14;100.00;62537.16;5014673;28;19928;-82
2023/05/10 00:38:30;;;;;;;;;;;11.40;67.60;;;-151.14;100.00;62537.16;5015177;28;19970;-81
2023/05/10 00:40:58;;;;;;;;;;;11.40;67.30;;;-151.14;100.00;62537.16;5015746;28;20251;-81
2023/05/10 00:43:31;;;;;;;;;;;11.40;67.40;;;-151.14;100.00;62537.16;5032026;28;19927;-82
2023/05/10 00:45:59;;;;;;;;;;;11.40;67.50;;;-151.14;100.00;62537.16;5015727;28;19930;-82
2023/05/10 00:48:27;;;;;;;;;;;11.30;67.40;;;-151.14;100.00;62537.16;5031405;28;19921;-82
2023/05/10 00:50:56;;;;;;;;;;;11.40;67.90;;;-151.14;100.00;62537.16;5031966;28;19921;-83
2023/05/10 00:53:25;;;;;;;;;;;11.30;68.00;;;-151.14;100.00;62537.16;5031950;28;19921;-82
2023/05/10 00:55:53;;;;;;;;;;;11.30;67.70;;;-151.14;100.00;62537.16;5032001;28;19921;-82
2023/05/10 00:58:23;;;;;;;;;;;11.30;67.80;;;-151.14;100.00;62537.16;5031372;28;20208;-82
2023/05/10 01:00:51;;;;;;;;;;;11.30;68.10;;;-151.14;100.00;62537.16;5015491;28;19928;-82
2023/05/10 01:03:19;;;;;;;;;;;11.30;67.40;;;-151.14;100.00;62537.16;5032831;28;19921;-82
2023/05/10 01:05:47;;;;;;;;;;;11.30;67.60;;;-151.14;100.00;62537.16;5015493;28;19921;-83
2023/05/10 01:08:16;;;;;;;;;;;11.30;67.70;;;-151.14;100.00;62537.16;5031327;28;20247;-82
2023/05/10 01:10:45;;;;;;;;;;;11.30;67.70;;;-151.14;100.00;62537.16;5031742;28;19928;-82
2023/05/10 01:13:13;;;;;;;;;;;11.30;67.30;;;-151.14;100.00;62537.16;5031601;28;19921;-82
2023/05/10 01:15:41;;;;;;;;;;;11.30;67.60;;;-151.14;100.00;62537.16;5032697;28;19921;-83
2023/05/10 01:18:10;;;;;;;;;;;11.20;67.40;;;-151.14;100.00;62537.16;5032097;28;19921;-82
2023/05/10 01:20:41;;;;;;;;;;;11.20;67.00;;;-151.14;100.00;62537.16;5015168;28;19927;-82
2023/05/10 01:23:26;;;;;;;;;;;11.20;67.20;;;-151.14;100.00;62537.16;5031598;28;19927;-82
2023/05/10 01:26:28;;;;;;;;;;;11.20;67.50;;;-151.14;100.00;62537.16;5048031;28;20227;-82
2023/05/10 01:29:16;;;;;;;;;;;11.20;67.30;;;-151.14;100.00;62537.16;5030679;28;19922;-83
2023/05/10 01:32:05;;;;;;;;;;;11.20;67.80;;;-151.14;100.00;62537.16;5031464;28;19925;-82
2023/05/10 01:34:36;;;;;;;;;;;11.20;67.20;;;-151.14;100.00;62537.16;5031479;28;19922;-82
2023/05/10 01:37:08;;;;;;;;;;;11.20;66.90;;;-151.14;100.00;62537.16;5030593;28;19929;-82
2023/05/10 01:39:40;;;;;;;;;;;11.20;66.80;;;-151.14;100.00;62537.16;5032378;28;19921;-82
2023/05/10 01:42:10;;;;;;;;;;;11.10;67.00;;;-151.14;100.00;62537.16;5031332;28;19921;-83
2023/05/10 01:44:40;;;;;;;;;;;11.10;67.10;;;-151.14;100.00;62537.16;5031238;28;19921;-82
2023/05/10 01:47:11;;;;;;;;;;;11.10;67.00;;;-151.14;100.00;62537.16;5013933;28;19921;-82
2023/05/10 01:49:42;;;;;;;;;;;11.10;67.30;;;-151.14;100.00;62537.16;5032157;28;19928;-82
2023/05/10 01:52:11;;;;;;;;;;;11.10;67.20;;;-151.14;100.00;62537.16;5031149;28;19922;-82
2023/05/10 01:54:40;;;;;;;;;;;11.10;66.90;;;-151.14;100.00;62537.16;5014638;28;20097;-82
2023/05/10 01:57:09;;;;;;;;;;;11.10;67.10;;;-151.14;100.00;62537.16;5014122;28;19921;-82
2023/05/10 01:59:40;;;;;;;;;;;11.10;67.00;;;-151.14;100.00;62537.16;5030992;28;19928;-82
2023/05/10 02:02:11;;;;;;;;;;;11.10;67.00;;;-151.14;100.00;62537.16;5014554;28;20209;-82
2023/05/10 02:04:39;;;;;;;;;;;11.10;67.20;;;-151.14;100.00;62537.16;5014342;28;20124;-82
2023/05/10 02:07:07;;;;;;;;;;;11.10;67.20;;;-151.14;100.00;62537.16;5030336;28;20120;-82
2023/05/10 02:09:36;;;;;;;;;;;11.10;67.30;;;-151.14;100.00;62537.16;5030705;28;19921;-82
2023/05/10 02:12:05;;;;;;;;;;;11.10;67.40;;;-151.14;100.00;62537.16;5031000;28;19921;-82
2023/05/10 02:14:35;;;;;;;;;;;11.10;67.10;;;-151.14;100.00;62537.16;5014355;28;19928;-82
2023/05/10 02:17:03;;;;;;;;;;;11.00;67.30;;;-151.14;100.00;62537.16;5013687;28;19929;-82
2023/05/10 02:19:33;;;;;;;;;;;11.10;67.30;;;-151.14;100.00;62537.16;5030580;28;19920;-82
2023/05/10 02:22:01;;;;;;;;;;;11.00;67.20;;;-151.14;100.00;62537.16;5030786;28;19921;-82
2023/05/10 02:24:30;;;;;;;;;;;11.00;67.00;;;-151.14;100.00;62537.16;5014107;28;19920;-82
2023/05/10 02:26:58;;;;;;;;;;;11.00;67.10;;;-151.14;100.00;62537.16;5030187;28;20231;-82
2023/05/10 02:29:26;;;;;;;;;;;11.00;67.00;;;-151.14;100.00;62537.16;5030446;28;19922;-81
2023/05/10 02:31:55;;;;;;;;;;;11.00;67.30;;;-151.14;100.00;62537.16;5014223;28;19944;-82
2023/05/10 02:34:24;;;;;;;;;;;11.00;66.90;;;-151.14;100.00;62537.16;5014052;28;19921;-82
2023/05/10 02:36:53;;;;;;;;;;;11.00;66.80;;;-151.14;100.00;62537.16;5013488;28;19921;-82
2023/05/10 02:39:21;;;;;;;;;;;11.00;67.20;;;-151.14;100.00;62537.16;5030565;28;19921;-81
2023/05/10 02:41:49;;;;;;;;;;;11.00;67.20;;;-151.14;100.00;62537.16;5014068;28;19943;-81
2023/05/10 02:44:19;;;;;;;;;;;11.00;67.20;;;-151.14;100.00;62537.16;5030224;28;19925;-81
2023/05/10 02:46:48;;;;;;;;;;;11.00;67.30;;;-151.14;100.00;62537.16;5029782;28;20231;-81
2023/05/10 02:49:16;;;;;;;;;;;11.00;67.50;;;-151.14;100.00;62537.16;5013135;28;20146;-81
2023/05/10 02:51:47;;;;;;;;;;;11.00;67.60;;;-151.14;100.00;62537.16;5030433;28;19921;-81
2023/05/10 02:54:19;;;;;;;;;;;11.00;67.50;;;-151.14;100.00;62537.16;5046765;28;19921;-81
2023/05/10 02:56:48;;;;;;;;;;;11.00;67.50;;;-151.14;100.00;62537.16;5030850;28;19925;-81
2023/05/10 02:59:16;;;;;;;;;;;11.00;67.60;;;-151.14;100.00;62537.16;5031405;28;19921;-82
2023/05/10 03:01:45;;;;;;;;;;;11.00;67.30;;;-151.14;100.00;62537.16;5017251;28;20251;-81
2023/05/10 03:04:14;;;;;;;;;;;11.00;67.60;;;-151.14;100.00;62537.16;5017292;28;19927;-81
2023/05/10 03:06:43;;;;;;;;;;;11.00;67.60;;;-151.14;100.00;62537.16;5016816;28;19928;-82
2023/05/10 03:09:12;;;;;;;;;;;11.00;67.50;;;-151.14;100.00;62537.16;5033502;28;19921;-81
2023/05/10 03:11:48;;;;;;;;;;;11.00;67.60;;;-151.14;100.00;62537.16;5017142;28;19921;-81
2023/05/10 03:14:22;;;;;;;;;;;11.00;67.60;;;-151.14;100.00;62537.16;5033610;28;19921;-81
2023/05/10 03:16:55;;;;;;;;;;;11.00;67.80;;;-151.14;100.00;62537.16;5016466;28;19927;-82
2023/05/10 03:19:25;;;;;;;;;;;11.00;67.70;;;-151.14;100.00;62537.16;5033305;28;19921;-81
2023/05/10 03:21:54;;;;;;;;;;;11.00;67.50;;;-151.14;100.00;62537.16;5049918;28;19922;-81
2023/05/10 03:24:23;;;;;;;;;;;10.90;67.40;;;-151.14;100.00;62537.16;5033311;28;19927;-81
2023/05/10 03:26:53;;;;;;;;;;;11.00;67.40;;;-151.14;100.00;62537.16;5032613;28;20243;-80
2023/05/10 03:29:21;;;;;;;;;;;11.00;67.50;;;-151.14;100.00;62537.16;5016805;28;19921;-81
2023/05/10 03:31:49;;;;;;;;;;;10.90;67.40;;;-151.14;100.00;62537.16;5033356;28;20121;-81
2023/05/10 03:34:17;;;;;;;;;;;11.00;67.40;;;-151.14;100.00;62537.16;5029486;28;20213;-81
2023/05/10 03:36:45;;;;;;;;;;;11.00;67.60;;;-151.14;100.00;62537.16;5016121;28;19927;-81
2023/05/10 03:39:13;;;;;;;;;;;11.00;67.60;;;-151.14;100.00;62537.16;5032851;28;19927;-81
2023/05/10 03:41:41;;;;;;;;;;;11.00;67.50;;;-151.14;100.00;62537.16;5032964;28;19928;-81
2023/05/10 03:44:12;;;;;;;;;;;11.00;67.50;;;-151.14;100.00;62537.16;5033014;28;19921;-81
2023/05/10 03:46:40;;;;;;;;;;;11.00;67.50;;;;;;5016764;28;19927;-81
2023/05/10 03:49:08;;;;;;;;;;;11.00;67.70;;;-151.14;100.00;62537.16;5032511;28;20091;-81
2023/05/10 03:51:38;;;;;;;;;;;11.00;67.30;;;-151.14;100.00;62537.16;5016456;28;19943;-81
2023/05/10 03:54:06;;;;;;;;;;;11.00;67.40;;;-151.14;100.00;62537.16;5016534;28;19921;-81
2023/05/10 03:56:34;;;;;;;;;;;11.00;67.40;;;-151.14;100.00;62537.16;5032738;28;19925;-81
2023/05/10 03:59:07;;;;;;;;;;;11.00;67.50;;;-151.14;100.00;62537.16;5015910;28;19921;-81
2023/05/10 04:01:36;;;;;;;;;;;11.00;67.40;;;-151.14;100.00;62537.16;5033150;28;19921;-81
2023/05/10 04:04:05;;;;;;;;;;;11.00;67.40;;;-151.14;100.00;62537.16;5032859;28;19927;-80
2023/05/10 04:06:33;;;;;;;;;;;11.00;67.50;;;-151.14;100.00;62537.16;5016263;28;19921;-81
2023/05/10 04:09:04;;;;;;;;;;;11.00;67.60;;;-151.14;100.00;62537.16;5032088;28;19927;-81
2023/05/10 04:11:32;;;;;;;;;;;11.00;67.60;;;-151.14;100.00;62537.16;5016279;28;19944;-81
2023/05/10 04:14:00;;;;;;;;;;;11.00;67.60;;;-151.14;100.00;62537.16;5032681;28;19921;-81
2023/05/10 04:16:28;;;;;;;;;;;11.00;67.80;;;-151.14;100.00;62537.16;5016044;28;20005;-81
2023/05/10 04:18:57;;;;;;;;;;;11.00;67.50;;;-151.14;100.00;62537.16;5032030;28;19927;-81
2023/05/10 04:21:25;;;;;;;;;;;11.10;67.60;;;-151.14;100.00;62537.16;5048917;28;19921;-81
2023/05/10 04:23:53;;;;;;;;;;;11.10;67.70;;;-151.14;100.00;62537.16;5032540;28;19927;-81
2023/05/10 04:26:21;;;;;;;;;;;11.10;67.80;;;10.06;100.00;62537.16;5032439;28;19921;-80
2023/05/10 04:28:49;;;;;;;;;;;11.10;67.60;;;-151.14;100.00;62537.16;5015362;28;19921;-80
2023/05/10 04:31:18;;;;;;;;;;;11.10;67.60;;;-151.14;100.00;62537.16;5015844;28;19972;-81
2023/05/10 04:33:45;;;;;;;;;;;11.10;67.60;;;;;;5032229;28;19943;-81
2023/05/10 04:36:14;;;;;;;;;;;11.10;67.60;;;-151.14;100.00;62537.16;5015695;28;19928;-80
2023/05/10 04:38:43;;;;;;;;;;;11.10;67.70;;;-151.14;100.00;62537.16;5031544;28;19928;-81
2023/05/10 04:41:11;;;;;;;;;;;11.10;67.90;;;-151.14;100.00;62537.16;5015911;28;20101;-81
2023/05/10 04:43:39;;;;;;;;;;;11.10;68.10;;;-151.14;100.00;62537.16;5032216;28;19928;-81
2023/05/10 04:46:08;;;;;;;;;;;11.20;68.40;;;-151.14;100.00;62537.16;5015437;28;19921;-81
2023/05/10 04:48:36;;;;;;;;;;;11.20;67.50;;;-151.14;100.00;62537.16;5031675;28;19921;-81
2023/05/10 04:51:04;;;;;;;;;;;11.20;67.70;;;-151.14;100.00;62537.16;5015544;28;19921;-81
2023/05/10 04:53:34;;;;;;;;;;;11.20;67.20;;;-151.14;100.00;62537.16;5032109;28;19928;-81
2023/05/10 04:56:02;;;;;;;;;;;11.20;66.50;;;-151.14;100.00;62537.16;5032946;28;20205;-81
2023/05/10 04:58:30;;;;;;;;;;;11.20;67.40;;;-151.14;100.00;62537.16;5014895;28;19927;-81
2023/05/10 05:00:58;;;;;;;;;;;11.30;67.40;;;-151.14;100.00;62537.16;5015598;28;19928;-81
2023/05/10 05:03:26;;;;;;;;;;;11.30;67.30;;;-151.14;100.00;62537.16;5033000;28;19927;-81
2023/05/10 05:05:54;;;;;;;;;;;11.30;67.00;;;-151.14;100.00;62537.16;5031811;28;19921;-81
2023/05/10 05:08:23;;;;;;;;;;;11.30;67.40;;;-151.14;100.00;62537.16;5014622;28;19921;-81
2023/05/10 05:10:53;;;;;;;;;;;11.30;67.40;;;18.08;100.00;62537.16;5031773;28;19921;-81
2023/05/10 05:13:21;;;;;;;;;;;11.30;67.40;;;-151.14;100.00;62537.16;5031649;28;19921;-81
2023/05/10 05:15:49;;;;;;;;;;;11.30;67.00;;;-151.14;100.00;62537.16;5021989;28;19921;-81
2023/05/10 05:18:17;;;;;;;;;;;11.30;66.70;;;-151.14;100.00;62537.16;5011401;28;20213;-81
2023/05/10 05:20:45;;;;;;;;;;;11.30;66.80;;;-151.14;100.00;62537.16;5011917;28;19922;-81
2023/05/10 05:23:13;;;;;;;;;;;11.40;66.50;;;-151.14;100.00;62537.16;5011179;28;19922;-81
2023/05/10 05:25:41;;;;;;;;;;;11.40;66.70;;;-151.14;100.00;62537.16;5011764;28;19921;-81
2023/05/10 05:28:11;;;;;;;;;;;11.40;66.80;;;-151.14;100.00;62537.16;4994715;28;20349;-81
2023/05/10 05:30:39;;;;;;;;;;;11.40;66.70;;;-151.14;100.00;62537.16;5012070;28;19922;-81
2023/05/10 05:33:07;;;;;;;;;;;11.40;66.40;;;-151.14;100.00;62537.16;4995214;28;19921;-80
2023/05/10 05:35:35;;;;;;;;;;;11.50;66.90;;;-151.14;100.00;62537.16;5012564;28;19922;-80
2023/05/10 05:38:03;;;;;;;;;;;11.50;66.60;;;-151.14;100.00;62537.16;5027492;28;19948;-81
2023/05/10 05:40:31;;;;;;;;;;;11.60;66.50;;;-151.14;100.00;62537.16;5012667;28;19928;-81
2023/05/10 05:42:59;;;;;;;;;;;11.70;66.40;;;-151.14;100.00;62537.16;4995064;28;19921;-81
2023/05/10 05:45:28;;;;;;;;;;;11.70;66.10;;;-151.14;100.00;62537.16;5012855;28;20124;-81
2023/05/10 05:47:56;;;;;;;;;;;11.80;66.10;;;-151.14;100.00;62537.16;4994422;28;19927;-81
2023/05/10 05:50:24;;;;;;;;;;;11.80;65.80;;;-151.14;100.00;62537.16;4995251;28;19984;-80
2023/05/10 05:52:52;;;;;;;;;;;11.90;65.80;;;11.00;100.00;62537.16;5012356;28;19921;-81
2023/05/10 05:55:21;;;;;;;;;;;11.90;65.50;;;11.04;100.00;62537.16;5027669;28;19921;-81
2023/05/10 05:57:49;;;;;;;;;;;12.00;65.10;;;-151.14;100.00;62537.16;5010497;28;19975;-81
2023/05/10 06:00:17;;;;;;;;;;;12.00;65.00;;;11.14;100.00;62537.16;4995056;28;20220;-80
2023/05/10 06:02:48;;;;;;;;;;;12.10;65.00;;;-151.14;100.00;62537.16;5012268;28;20117;-81
2023/05/10 06:05:16;;;;;;;;;;;12.10;64.70;;;11.24;100.00;62537.16;5012274;28;19929;-81
2023/05/10 06:07:44;;;;;;;;;;;12.20;64.30;;;-151.14;100.00;62537.16;5010480;28;19922;-81
2023/05/10 06:10:12;;;;;;;;;;;12.20;64.10;;;-151.14;100.00;62537.16;4997213;28;19921;-81
2023/05/10 06:12:40;;;;;;;;;;;12.20;64.00;;;-151.14;100.00;62537.16;5014386;28;19927;-81
2023/05/10 06:15:10;;;;;;;;;;;12.20;63.80;;;-151.14;100.00;62537.16;5030540;28;19921;-81
2023/05/10 06:17:38;;;;;;;;;;;12.30;63.80;;;-151.14;100.00;62537.16;5030443;28;19928;-81
2023/05/10 06:20:09;;;;;;;;;;;12.30;63.50;;;-151.14;100.00;62537.16;5014132;28;19927;-81
2023/05/10 06:22:37;;;;;;;;;;;12.30;63.50;;;-151.14;100.00;62537.16;5031702;28;19921;-81
2023/05/10 06:25:06;;;;;;;;;;;12.30;63.40;;;-151.14;100.00;62537.16;5014028;28;19921;-81
2023/05/10 06:27:34;;;;;;;;;;;12.40;63.60;;;-151.14;100.00;62537.16;5013507;28;19927;-81
2023/05/10 06:30:02;;;;;;;;;;;12.40;63.70;;;-151.14;100.00;62537.16;5030558;28;19921;-81
2023/05/10 06:32:32;;;;;;;;;;;12.40;63.80;;;-151.14;100.00;62537.16;5014352;28;19921;-81
2023/05/10 06:35:00;;;;;;;;;;;12.40;63.40;;;-151.14;100.00;62537.16;5029427;28;19922;-80
2023/05/10 06:37:29;;;;;;;;;;;12.50;63.50;;;-151.14;100.00;62537.16;5031042;28;19922;-81
2023/05/10 06:39:57;;;;;;;;;;;12.50;63.60;;;-151.14;100.00;62537.16;5030378;28;20127;-81
2023/05/10 06:42:27;;;;;;;;;;;12.50;63.80;;;-151.14;100.00;62537.16;5046910;28;19925;-80
2023/05/10 06:44:55;;;;;;;;;;;12.50;64.20;;;-151.14;100.00;62537.16;5030211;28;19921;-81
2023/05/10 06:47:23;;;;;;;;;;;12.50;64.40;;;-151.14;100.00;62537.16;5029678;28;19928;-81
2023/05/10 06:49:51;;;;;;;;;;;12.60;64.40;;;-151.14;100.00;62537.16;5024674;28;19922;-81
2023/05/10 06:52:19;;;;;;;;;;;12.60;64.50;;;-151.14;100.00;62537.16;5026954;28;20235;-81
2023/05/10 06:54:48;;;;;;;;;;;12.70;64.40;;;-151.14;100.00;62537.16;5043538;28;19921;-80
2023/05/10 06:57:17;;;;;;;;;;;12.70;64.30;;;-151.14;100.00;62537.16;5010980;28;19932;-81
2023/05/10 06:59:45;;;;;;;;;;;12.70;64.10;;;-151.14;100.00;62537.16;5010358;28;19967;-81
2023/05/10 07:02:14;;;;;;;;;;;12.70;63.90;;;-151.14;100.00;62537.16;4994210;28;19930;-81
2023/05/10 07:04:42;;;;;;;;;;;12.70;64.10;;;-151.14;100.00;62537.16;5010331;28;19928;-81
2023/05/10 07:07:10;;;;;;;;;;;12.80;64.20;;;-151.14;100.00;62537.16;5010840;28;20136;-81
2023/05/10 07:09:38;;;;;;;;;;;12.80;63.90;;;-151.14;100.00;62537.16;5011472;28;19921;-80
2023/05/10 07:12:08;;;;;;;;;;;12.80;63.90;;;-151.14;100.00;62537.16;5011516;28;19922;-81
2023/05/10 07:14:36;;;;;;;;;;;12.80;64.10;;;-151.14;100.00;62537.16;5010371;28;19927;-81
2023/05/10 07:17:04;;;;;;;;;;;12.80;64.00;;;-151.14;100.00;62537.16;5042595;28;19928;-81
2023/05/10 07:19:32;;;;;;;;;;;12.80;64.20;;;-151.14;100.00;62537.16;4993902;28;20228;-81
2023/05/10 07:22:00;;;;;;;;;;;12.80;64.10;;;-151.14;100.00;62537.16;5026596;28;19921;-81
2023/05/10 07:24:28;;;;;;;;;;;12.80;63.80;;;-151.14;100.00;62537.16;5010048;28;19921;-81
2023/05/10 07:26:56;;;;;;;;;;;12.80;63.90;;;-151.14;100.00;62537.16;5025863;28;19921;-81
2023/05/10 07:29:26;;;;;;;;;;;12.90;63.50;;;-151.14;100.00;62537.16;5010285;28;19922;-81
2023/05/10 07:31:54;;;;;;;;;;;12.90;63.70;;;-151.14;100.00;62537.16;5026588;28;19922;-81
2023/05/10 07:34:22;;;;;;;;;;;12.90;63.70;;;-151.14;100.00;62537.16;5010065;28;20147;-81
2023/05/10 07:36:50;;;;;;;;;;;12.90;63.70;;;-151.14;100.00;62537.16;5042567;28;19928;-81
2023/05/10 07:39:18;;;;;;;;;;;12.90;63.80;;;-151.14;100.00;62537.16;5010984;28;19921;-81
2023/05/10 07:41:46;;;;;;;;;;;12.90;63.90;;;-151.14;100.00;62537.16;5026270;28;19922;-81
2023/05/10 07:44:14;;;;;;;;;;;12.90;63.90;;;-151.14;100.00;62537.16;5019249;28;19921;-81
2023/05/10 07:46:43;;;;;;;;;;;12.90;63.60;;;-151.14;100.00;62537.16;5016900;28;19921;-81
2023/05/10 07:49:11;;;;;;;;;;;13.00;63.70;;;-151.14;100.00;62537.16;5032667;28;19921;-81
2023/05/10 07:51:39;;;;;;;;;;;13.00;63.70;;;-151.14;100.00;62537.16;5033072;28;20124;-81
2023/05/10 07:54:07;;;;;;;;;;;13.00;63.50;;;-151.14;100.00;62537.16;5033883;28;19921;-81
2023/05/10 07:56:35;;;;;;;;;;;13.00;63.70;;;-151.14;100.00;62537.16;5034019;28;19927;-81
2023/05/10 07:59:04;;;;;;;;;;;13.00;63.50;;;-151.14;100.00;62537.16;5032237;28;19921;-81
2023/05/10 08:01:33;;;;;;;;;;;13.00;63.30;;;-151.14;100.00;62537.16;5016510;28;19928;-81
2023/05/10 08:04:02;;;;;;;;;;;13.10;63.60;;;-151.14;100.00;62537.16;5032536;28;19928;-81
2023/05/10 08:06:30;;;;;;;;;;;13.10;63.60;;;-151.14;100.00;62537.16;5032811;28;20235;-81
2023/05/10 08:08:58;;;;;;;;;;;13.10;63.70;;;-151.14;100.00;62537.16;5031918;28;19921;-81
2023/05/10 08:11:27;;;;;;;;;;;13.10;63.40;;;-151.14;100.00;62537.16;5032783;28;20209;-81
2023/05/10 08:13:55;;;;;;;;;;;13.10;63.10;;;-151.14;100.00;62537.16;5032553;28;19943;-82
2023/05/10 08:16:23;;;;;;;;;;;13.10;63.50;;;-151.14;100.00;62537.16;5032566;28;19928;-81
2023/05/10 08:18:51;;;;;;;;;;;13.10;63.20;;;-151.14;100.00;62537.16;5015261;28;19921;-81
2023/05/10 08:21:20;;;;;;;;;;;13.10;63.30;;;-151.14;100.00;62537.16;5033636;28;19921;-81
2023/05/10 08:23:49;;;;;;;;;;;13.10;63.30;;;-151.14;100.00;62537.16;5043171;28;19921;-81
2023/05/10 08:26:17;;;;;;;;;;;13.10;63.50;;;-151.14;100.00;62537.16;5016003;28;19921;-81
2023/05/10 08:28:45;;;;;;;;;;;13.10;63.20;;;-151.14;100.00;62537.16;5015325;28;19921;-81
2023/05/10 08:31:13;;;;;;;;;;;13.10;63.40;;;-151.14;100.00;62537.16;5032542;28;19922;-81
2023/05/10 08:33:41;;;;;;;;;;;13.10;63.30;;;-151.14;100.00;62537.16;5033475;28;19929;-81
2023/05/10 08:36:09;;;;;;;;;;;13.10;63.50;;;-151.14;100.00;62537.16;5032186;28;20154;-81
2023/05/10 08:38:38;;;;;;;;;;;13.10;63.80;;;-151.14;100.00;62537.16;5031900;28;19921;-81
2023/05/10 08:41:06;;;;;;;;;;;13.10;63.40;;;-151.14;100.00;62537.16;5048847;28;19921;-81
2023/05/10 08:43:34;;;;;;;;;;;13.10;63.70;;;-151.14;100.00;62537.16;5015845;28;19921;-81
2023/05/10 08:46:03;;;;;;;;;;;13.10;63.80;;;-151.14;100.00;62537.16;5031983;28;19922;-81
2023/05/10 08:48:31;;;;;;;;;;;13.10;63.60;;;-151.14;100.00;62537.16;5015229;28;20212;-81
2023/05/10 08:51:00;;;;;;;;;;;13.10;63.60;;;-151.14;100.00;62537.16;5032202;28;19921;-81
2023/05/10 08:53:28;;;;;;;;;;;13.10;63.80;;;-151.14;100.00;62537.16;5032139;28;19921;-81
2023/05/10 08:55:58;;;;;;;;;;;13.10;64.00;;;-151.14;100.00;62537.16;5031665;28;19921;-81
2023/05/10 08:58:26;;;;;;;;;;;13.10;63.80;;;-151.14;100.00;62537.16;5014590;28;19921;-81
2023/05/10 09:00:54;;;;;;;;;;;13.10;64.20;;;-151.14;100.00;62537.16;5033030;28;20098;-81
2023/05/10 09:03:22;;;;;;;;;;;13.10;64.10;;;-151.14;100.00;62537.16;5048483;28;19921;-81
2023/05/10 09:05:50;;;;;;;;;;;13.10;63.60;;;-151.14;100.00;62537.16;5031643;28;20120;-81
2023/05/10 09:08:18;;;;;;;;;;;13.10;64.00;;;-151.14;100.00;62537.16;5031137;28;19922;-81
2023/05/10 09:10:47;;;;;;;;;;;13.00;64.20;;;-151.14;100.00;62537.16;5015457;28;20217;-81
2023/05/10 09:13:16;;;;;;;;;;;13.00;64.10;;;-151.14;100.00;62537.16;5031750;28;19943;-81
2023/05/10 09:15:44;;;;;;;;;;;12.90;63.80;;;-151.14;100.00;62537.16;5032736;28;20136;-81
2023/05/10 09:18:12;;;;;;;;;;;12.90;64.00;;;-151.14;100.00;62537.16;5032368;28;19921;-81
2023/05/10 09:20:40;;;;;;;;;;;12.90;63.10;;;-151.14;100.00;62537.16;5031501;28;19921;-81
2023/05/10 09:23:09;;;;;;;;;;;12.80;63.20;;;-151.14;100.00;62537.16;5015485;28;19921;-81
2023/05/10 09:25:38;;;;;;;;;;;12.80;63.60;;;-151.14;100.00;62537.16;5031527;28;20126;-81
2023/05/10 09:28:07;;;;;;;;;;;12.80;63.40;;;-151.14;100.00;62537.16;5030988;28;20112;-82
2023/05/10 09:30:37;;;;;;;;;;;12.70;63.80;;;-151.14;100.00;62537.16;5048052;28;19922;-82
2023/05/10 09:33:05;;;;;;;;;;;12.70;63.90;;;-151.14;100.00;62537.16;5032550;28;19920;-81
2023/05/10 09:35:33;;;;;;;;;;;12.70;63.80;;;-151.14;100.00;62537.16;5031228;28;19921;-81
2023/05/10 09:38:03;;;;;;;;;;;12.70;63.80;;;-151.14;100.00;62537.16;5030864;28;19927;-81
2023/05/10 09:40:31;;;;;;;;;;;12.60;64.20;;;-151.14;100.00;62537.16;5031432;28;19921;-81
2023/05/10 09:43:00;;;;;;;;;;;12.60;64.10;;;-151.14;100.00;62537.16;5031354;28;19921;-81
2023/05/10 09:45:29;;;;;;;;;;;12.60;64.30;;;-151.14;100.00;62537.16;5014591;28;20247;-81
2023/05/10 09:48:00;;;;;;;;;;;12.60;64.30;;;-151.14;100.00;62537.16;5014316;28;19927;-81
2023/05/10 09:50:28;;;;;;;;;;;12.60;64.00;;;-151.14;100.00;62537.16;5032256;28;19927;-81
2023/05/10 09:52:58;;;;;;;;;;;12.50;63.90;;;-151.14;100.00;62537.16;5014813;28;19929;-81
2023/05/10 09:55:27;;;;;;;;;;;12.50;64.10;;;-151.14;100.00;62537.16;5014545;28;19921;-81
2023/05/10 09:58:00;;;;;;;;;;;12.50;63.60;;;-151.14;100.00;62537.16;5014054;28;19921;-82
2023/05/10 10:00:28;;;;;;;;;;;12.50;64.10;;;-151.14;100.00;62537.16;5014674;28;19921;-81
2023/05/10 10:02:57;;;;;;;;;;;12.50;64.10;;;-151.14;100.00;62537.16;5012210;28;19944;-81
2023/05/10 10:05:30;;;;;;;;;;;12.50;64.40;;;-151.14;100.00;62537.16;5030494;28;19927;-82
2023/05/10 10:07:58;;;;;;;;;;;12.50;64.30;;;-151.14;100.00;62537.16;5030265;28;19921;-82
2023/05/10 10:10:26;;;;;;;;;;;12.50;64.40;;;-151.14;100.00;62537.16;5047333;28;20132;-81
2023/05/10 10:12:55;;;;;;;;;;;12.50;64.80;;;-151.14;100.00;62537.16;5047383;28;19929;-81
2023/05/10 10:15:23;;;;;;;;;;;12.50;64.30;;;-151.14;100.00;62537.16;5030624;28;19928;-82
2023/05/10 10:17:51;;;;;;;;;;;12.50;64.30;;;-151.14;100.00;62537.16;5013928;28;19922;-81
2023/05/10 10:20:22;;;;;;;;;;;12.50;64.20;;;-151.14;100.00;62537.16;5047232;28;19928;-82
2023/05/10 10:22:51;;;;;;;;;;;12.50;64.30;;;-151.14;100.00;62537.16;5014378;28;20137;-82
2023/05/10 10:25:21;;;;;;;;;;;12.40;64.00;;;-151.14;100.00;62537.16;5030730;28;20109;-81
2023/05/10 10:27:58;;;;;;;;;;;12.40;64.30;;;-151.14;100.00;62537.16;5030187;28;19928;-82
2023/05/10 10:30:29;;;;;;;;;;;12.40;64.00;;;-151.14;100.00;62537.16;5030594;28;19921;-81
2023/05/10 10:33:15;;;;;;;;;;;12.40;64.40;;;-151.14;100.00;62537.16;5030782;28;20303;-81
2023/05/10 10:35:43;;;;;;;;;;;12.40;64.70;;;-151.14;100.00;62537.16;5029150;28;19928;-81
2023/05/10 10:38:13;;;;;;;;;;;12.40;64.80;;;-151.14;100.00;62537.16;5030016;28;19927;-81
2023/05/10 10:40:42;;;;;;;;;;;12.40;63.70;;;-151.14;100.00;62537.16;5013952;28;20128;-81
2023/05/10 10:43:22;;;;;;;;;;;12.40;64.50;;;-151.14;100.00;62537.16;5030340;28;19928;-82
2023/05/10 10:46:11;;;;;;;;;;;12.40;64.40;;;-151.14;100.00;62537.16;5031399;28;19921;-80
2023/05/10 10:48:39;;;;;;;;;;;12.40;65.00;;;-151.14;100.00;62537.16;5013406;28;19921;-81
2023/05/10 10:51:07;;;;;;;;;;;12.40;64.90;;;-151.14;100.00;62537.16;5013827;28;19929;-82
2023/05/10 10:53:40;;;;;;;;;;;12.30;64.40;;;-151.14;100.00;62537.16;5030503;28;19928;-81
2023/05/10 10:56:09;;;;;;;;;;;12.40;64.70;;;-151.14;100.00;62537.16;5013671;28;19935;-81
2023/05/10 10:58:37;;;;;;;;;;;12.40;64.60;;;-151.14;100.00;62537.16;5029830;28;19927;-81
2023/05/10 11:01:12;;;;;;;;;;;12.30;64.20;;;-151.14;100.00;62537.16;5013786;28;19921;-81
2023/05/10 11:03:40;;;;;;;;;;;12.30;64.60;;;-151.14;100.00;62537.16;5030347;28;20112;-81